Sunday, October 22, 2017, 8:30 PM EDT
Back to Local

KFWN, Sussex Airport

Location: Sussex, NJ, United States Lat: 41.2
Local Time: 8:30 PM EDT ( 0:30 GMT) Lon: -74.633
Time Zone: US/Eastern Elev: 419 ft

Show me the last for .
Show Coded

Time T Td Feel RH Dir Speed Gust Alt SLP Vis Weather Sky Remarks
2017-10-22 19:53 56 49 - 77 - Calm - 30.35 30.35 10 CLR 6-hr Min Temp (8pm): 55.9°F
6-hr Max Temp (8pm): 77.0°F
2017-10-22 18:53 60 49 - 66 - Calm - 30.34 30.34 10 CLR None
2017-10-22 17:53 67 48 - 50 - Calm - 30.34 30.34 10 CLR None
2017-10-22 16:53 73 43 - 33 210° 6 - 30.33 30.33 10 CLR None
2017-10-22 15:53 75 42 - 30 180° 6 - 30.34 30.34 10 CLR None
2017-10-22 14:53 75 44 - 33 170° 6 - 30.34 30.33 10 CLR None
2017-10-22 13:53 76 47 - 35 220° 7 - 30.35 30.34 10 CLR 6-hr Precip Total (2pm): 0.00"
6-hr Min Temp (2pm): 39.0°F
6-hr Max Temp (2pm): 75.9°F
2017-10-22 12:53 73 47 - 39 Variable 3 - 30.38 30.37 10 CLR None
2017-10-22 11:53 70 46 - 42 - Calm - 30.39 30.39 10 CLR None
2017-10-22 10:53 63 52 - 67 - Calm - 30.40 30.40 10 CLR 6-hr Precip Total (11am): 0.00"
2017-10-22 09:53 51 49 - 92 - Calm - 30.41 30.41 10 CLR 1-hr Precip Total: Trace
2017-10-22 08:53 45 44 - 96 - Calm - 30.42 30.42 10 CLR 1-hr Precip Total: Trace
2017-10-22 07:53 39 39 - 100 - Calm - 30.42 30.42 10 CLR 1-hr Precip Total: Trace
6-hr Precip Total (8am): 0.00"
6-hr Min Temp (8am): 37.9°F
6-hr Max Temp (8am): 43.0°F
2017-10-22 06:53 39 38 - 95 - Calm - 30.40 30.40 10 CLR None
2017-10-22 05:53 39 39 - 100 - Calm - 30.39 30.39 10 CLR None
2017-10-22 04:53 40 39 - 96 - Calm - 30.37 30.37 10 CLR None
2017-10-22 03:53 40 40 - 100 - Calm - 30.36 30.36 10 CLR None
2017-10-22 02:53 41 41 - 100 - Calm - 30.37 30.37 10 CLR None
2017-10-22 01:53 43 42 - 96 - Calm - 30.36 30.36 10 CLR 6-hr Min Temp (2am): 42.1°F
6-hr Max Temp (2am): 54.0°F
2017-10-22 00:53 44 43 - 95 - Calm - 30.37 30.37 10 CLR 24-hr Min Temp (1am): 37.0°F
24-hr Max Temp (1am): 75.9°F
2017-10-21 23:53 45 44 - 96 - Calm - 30.37 30.37 10 CLR None
2017-10-21 22:53 47 45 - 92 - Calm - 30.37 30.37 10 CLR None
2017-10-21 21:53 48 47 - 96 - Calm - 30.37 30.37 10 CLR None
2017-10-21 20:53 49 47 - 92 - Calm - 30.36 30.36 10 CLR None

Support USWX by starting your Amazon purchase here.